Terminal Aerodrome Forecast
Issued by NWS

Home | Current Version | Previous Version | Text Only | Print | Product List | Glossary On
Versions: 1 2 3 4 5 6 7 8 9 10 11 12 13 14 15 16 17 18 19 20 21 22 23
000
FTUS46 KMFR 212300 RRA
TAFOTH
TAF
KOTH 212342Z 2200/2224 19012KT P6SM SCT050 BKN070 OVC100
     FM220300 17012KT P6SM -SHRA BKN035 OVC050 WS020/19040KT
     FM220900 17014G20KT 6SM -RA SCT025 OVC035 WS020/20050KT
     FM221200 17014G20KT 5SM RA BKN025 OVC035 WS020/19050KT
     FM221800 19020G35KT 4SM RA BKN025 OVC035=

USA.gov is the U.S. government's official web portal to all federal, state and local government web resources and services.